59CA weather

Little Hands STOLport
San Ramon, California, United States

Public forecast

Using degrees Fahrenheit for public forecast. Weather courtesy of forecast.io.

Closest aviation weather report (METAR) to Little Hands STOLport

Closest report is Hayward Executive Airport, 9.7 nm (18.0 km) SSW. Retrieved 2019/10/24 03:54 UTC (27 minutes ago):

KHWD 240354Z AUTO 04003KT 10SM CLR 20/10 A2991 RMK AO2 SLP136 T02000100

Closest aviation forecast (TAF) to Little Hands STOLport

Closest forecast is Metropolitan Oakland International Airport, 10.4 nm (19.2 km) WSW. Retrieved 2019-10-24 00:22 UTC (4 hours ago):

TAF KOAK 232320Z 2400/2506 30009KT P6SM SKC FM240500 02005KT P6SM SKC WS015/03030KT FM240800 05007G20KT P6SM SKC WS010/04030KT FM241800 04007G18KT P6SM SKC FM242300 01007KT P6SM SKC